Kezdőlap
METAR-TAF:

METAR-TAF

Repülőterek :

Funafuti, Tuvalu

földrajzi szélesség: 08-31S, földrajzi hosszúság: 179-13E, magasság: 1 m

Jelenlegi meteorológiai megfigyelések

A jelentés 10 perccel ezelõtt készült, 19:00 UTC
Keleti szél 7 kt
Hőmérséklet 28°C
Páratartalom 79%
Légköri nyomás 1011 hPa
Látótávolság 10 km, vagy több
Kevés felhő 2000 lábon

METAR: NGFU 191900Z 09007KT 9999 FEW020 28/24 Q1011

Idő: 07:10 (19:10 UTC)

Előrejelzés

A jelentés 2 órával és 1 perccel ezelõtt készült, 17:09 UTC
Az előrejelzés 19-én 18 óra UTC és 20-én 18 óra UTC között érvényes
Délkeleti szél 7 kt
Látótávolság 10 km, vagy több
Kevés felhő 1900 lábon

TAF: NGFU 191709Z 1918/2018 13007KT 9999 FEW019

Meteorológiai megfigyelések és előrejelzések több, mint 4000 repülőtéren (METAR és TAF jelentéseket).

A térképen piros és sárga pontok jelzik az elérhető meteorológiai állomásokat.

Mozgassa az egeret a pont fölött, hogy megjelenjen az állomás neve.

Azután kattintson az időjárási megfigyelések és előrejelzések megtekintéséhez.

A térkép megváltoztatása: kattintson a fekete keresztel jelölt zöld gombra ráközelítéshez, a vonallal jelölt zöld gombra távolításhoz, vagy a zöld nyilakra a szomszédos térképek eléréséhez.


METAR-TAF: